Amira Jasmine — T2XP4 — position and weather

sailwx.info

Track history (hours):
 
Tides and Currents Weather Stations Pressure Air Temp Water Temp Dewpoint Dewpoint Depression Visibility Wind Speed Wind Dir Waves Ship Positions

Amira Jasmine

Last reported at 2018-May-03 22:36 UTC. Time now 2018-Jun-20 15:01 UTC.
Position N 44°28' E 014°15'.
Warning: this ship's position is 47 days out of date.

Length 101 m; draft 6.8 m.

Type: Cargo ship. MMSI: 572871210.

Date/timePositionNaut miles runAvg speedWind from/ knotsBaromVisibWave heightAir tempDewpointWater temp
2018-May-03 22:36N 44°28' E 014°15'111.2
2018-May-03 22:30N 44°29' E 014°14'911.2
2018-May-03 21:41N 44°38' E 014°11'211.2
2018-May-03 21:30N 44°40' E 014°10'511.3
2018-May-03 21:00N 44°45' E 014°08'2911.1
2018-May-03 18:22N 45°13' E 014°22'611.9
2018-May-03 17:54N 45°15' E 014°29'  
2018-Apr-25 06:34N 45°16' E 014°33'2 7.4
2018-Apr-25 06:16N 45°15' E 014°30'10 7.8
2018-Apr-25 05:02N 45°11' E 014°18'15 9.1
2018-Apr-25 03:21N 44°56' E 014°12'6 9.7
2018-Apr-25 02:46N 44°51' E 014°08'3 9.9
2018-Apr-25 02:30N 44°49' E 014°07'5 9.6
2018-Apr-25 02:00N 44°45' E 014°03'5 9.6
2018-Apr-25 01:31N 44°40' E 014°01'5 9.4
2018-Apr-25 01:01N 44°41' E 013°54'5 9.8
2018-Apr-25 00:31N 44°42' E 013°47'510.0
2018-Apr-25 00:00N 44°43' E 013°40'510.0
2018-Apr-24 23:30N 44°44' E 013°33'510.0
2018-Apr-24 23:00N 44°45' E 013°27'510.0
2018-Apr-24 22:30N 44°49' E 013°23'510.2
2018-Apr-24 22:00N 44°54' E 013°19'510.4
2018-Apr-24 21:30N 44°58' E 013°15'510.2
2018-Apr-24 21:01N 45°02' E 013°11'510.1
2018-Apr-24 20:29N 45°07' E 013°07'5 9.8
2018-Apr-24 20:00N 45°11' E 013°04'5 9.9
2018-Apr-24 19:31N 45°16' E 013°03'510.2
2018-Apr-24 19:00N 45°21' E 013°01'510.5
2018-Apr-24 18:30N 45°26' E 013°05'612.5
2018-Apr-24 18:00N 45°31' E 013°10'613.0
2018-Apr-24 17:30N 45°36' E 013°15'4 6.8
2018-Apr-24 16:59N 45°39' E 013°17'0 0.0
2018-Apr-24 16:29N 45°39' E 013°17'0 0.0
2018-Apr-24 15:59N 45°39' E 013°17'0 0.0
2018-Apr-24 15:29N 45°39' E 013°17'0 0.0
2018-Apr-24 14:58N 45°39' E 013°17'0 0.0
2018-Apr-24 14:28N 45°39' E 013°17'0 0.4
2018-Apr-24 14:00N 45°39' E 013°17'2 4.8
2018-Apr-24 13:30N 45°41' E 013°15'3 5.8
2018-Apr-24 13:00N 45°44' E 013°15'3 4.7
2018-Apr-24 12:21N 45°47' E 013°14'1 1.5
2018-Apr-24 11:56N 45°48' E 013°14'0 0.0
2018-Apr-24 11:29N 45°48' E 013°14'0 0.0
2018-Apr-24 10:59N 45°48' E 013°14'0 0.0
2018-Apr-24 10:25N 45°48' E 013°14'0 0.0
2018-Apr-24 09:55N 45°48' E 013°14'0 0.0
2018-Apr-24 09:22N 45°48' E 013°14'0 0.0
2018-Apr-24 08:49N 45°48' E 013°14'0 0.0
2018-Apr-24 08:28N 45°48' E 013°14'0 0.0
2018-Apr-24 07:57N 45°48' E 013°14'0 0.0
2018-Apr-24 07:30N 45°48' E 013°14'0 0.0
2018-Apr-24 06:57N 45°48' E 013°14'0 0.0
2018-Apr-24 06:30N 45°48' E 013°14'0 0.0
2018-Apr-24 05:57N 45°48' E 013°14'0 0.0
2018-Apr-24 05:23N 45°48' E 013°14'0 0.0
2018-Apr-24 04:53N 45°48' E 013°14'0 0.0
2018-Apr-24 04:23N 45°48' E 013°14'0 0.0
2018-Apr-24 03:59N 45°48' E 013°14'0 0.0
2018-Apr-24 03:25N 45°48' E 013°14'0 0.0
2018-Apr-24 02:52N 45°48' E 013°14'0 0.0
2018-Apr-24 02:19N 45°48' E 013°14'0 0.0
2018-Apr-24 01:58N 45°48' E 013°14'0 0.0
2018-Apr-24 01:28N 45°48' E 013°14'0 0.0
2018-Apr-24 00:51N 45°48' E 013°14'0 0.0
2018-Apr-24 00:30N 45°48' E 013°14'0 0.0
2018-Apr-24 00:00N 45°48' E 013°14'0 0.0
2018-Apr-23 23:30N 45°48' E 013°14'0 0.0
2018-Apr-23 22:57N 45°48' E 013°14'  
Track history (hours):
 
Tides and Currents Weather Stations Pressure Air Temp Water Temp Dewpoint Dewpoint Depression Visibility Wind Speed Wind Dir Waves Ship Positions

Amira Jasmine

Last reported at 2018-May-03 22:36 UTC. Time now 2018-Jun-20 15:01 UTC.
Position N 44°28' E 014°15'.
Warning: this ship's position is 47 days out of date.

Length 101 m; draft 6.8 m.

Type: Cargo ship. MMSI: 572871210.

Date/timePositionNaut miles runAvg speedWind from/ knotsBaromVisibWave heightAir tempDewpointWater temp
2018-May-03 22:36N 44°28' E 014°15'111.2
2018-May-03 22:30N 44°29' E 014°14'911.2
2018-May-03 21:41N 44°38' E 014°11'211.2
2018-May-03 21:30N 44°40' E 014°10'511.3
2018-May-03 21:00N 44°45' E 014°08'2911.1
2018-May-03 18:22N 45°13' E 014°22'611.9
2018-May-03 17:54N 45°15' E 014°29'  
2018-Apr-25 06:34N 45°16' E 014°33'2 7.4
2018-Apr-25 06:16N 45°15' E 014°30'10 7.8
2018-Apr-25 05:02N 45°11' E 014°18'15 9.1
2018-Apr-25 03:21N 44°56' E 014°12'6 9.7
2018-Apr-25 02:46N 44°51' E 014°08'3 9.9
2018-Apr-25 02:30N 44°49' E 014°07'5 9.6
2018-Apr-25 02:00N 44°45' E 014°03'5 9.6
2018-Apr-25 01:31N 44°40' E 014°01'5 9.4
2018-Apr-25 01:01N 44°41' E 013°54'5 9.8
2018-Apr-25 00:31N 44°42' E 013°47'510.0
2018-Apr-25 00:00N 44°43' E 013°40'510.0
2018-Apr-24 23:30N 44°44' E 013°33'510.0
2018-Apr-24 23:00N 44°45' E 013°27'510.0
2018-Apr-24 22:30N 44°49' E 013°23'510.2
2018-Apr-24 22:00N 44°54' E 013°19'510.4
2018-Apr-24 21:30N 44°58' E 013°15'510.2
2018-Apr-24 21:01N 45°02' E 013°11'510.1
2018-Apr-24 20:29N 45°07' E 013°07'5 9.8
2018-Apr-24 20:00N 45°11' E 013°04'5 9.9
2018-Apr-24 19:31N 45°16' E 013°03'510.2
2018-Apr-24 19:00N 45°21' E 013°01'510.5
2018-Apr-24 18:30N 45°26' E 013°05'612.5
2018-Apr-24 18:00N 45°31' E 013°10'613.0
2018-Apr-24 17:30N 45°36' E 013°15'4 6.8
2018-Apr-24 16:59N 45°39' E 013°17'0 0.0
2018-Apr-24 16:29N 45°39' E 013°17'0 0.0
2018-Apr-24 15:59N 45°39' E 013°17'0 0.0
2018-Apr-24 15:29N 45°39' E 013°17'0 0.0
2018-Apr-24 14:58N 45°39' E 013°17'0 0.0
2018-Apr-24 14:28N 45°39' E 013°17'0 0.4
2018-Apr-24 14:00N 45°39' E 013°17'2 4.8
2018-Apr-24 13:30N 45°41' E 013°15'3 5.8
2018-Apr-24 13:00N 45°44' E 013°15'3 4.7
2018-Apr-24 12:21N 45°47' E 013°14'1 1.5
2018-Apr-24 11:56N 45°48' E 013°14'0 0.0
2018-Apr-24 11:29N 45°48' E 013°14'0 0.0
2018-Apr-24 10:59N 45°48' E 013°14'0 0.0
2018-Apr-24 10:25N 45°48' E 013°14'0 0.0
2018-Apr-24 09:55N 45°48' E 013°14'0 0.0
2018-Apr-24 09:22N 45°48' E 013°14'0 0.0
2018-Apr-24 08:49N 45°48' E 013°14'0 0.0
2018-Apr-24 08:28N 45°48' E 013°14'0 0.0
2018-Apr-24 07:57N 45°48' E 013°14'0 0.0
2018-Apr-24 07:30N 45°48' E 013°14'0 0.0
2018-Apr-24 06:57N 45°48' E 013°14'0 0.0
2018-Apr-24 06:30N 45°48' E 013°14'0 0.0
2018-Apr-24 05:57N 45°48' E 013°14'0 0.0
2018-Apr-24 05:23N 45°48' E 013°14'0 0.0
2018-Apr-24 04:53N 45°48' E 013°14'0 0.0
2018-Apr-24 04:23N 45°48' E 013°14'0 0.0
2018-Apr-24 03:59N 45°48' E 013°14'0 0.0
2018-Apr-24 03:25N 45°48' E 013°14'0 0.0
2018-Apr-24 02:52N 45°48' E 013°14'0 0.0
2018-Apr-24 02:19N 45°48' E 013°14'0 0.0
2018-Apr-24 01:58N 45°48' E 013°14'0 0.0
2018-Apr-24 01:28N 45°48' E 013°14'0 0.0
2018-Apr-24 00:51N 45°48' E 013°14'0 0.0
2018-Apr-24 00:30N 45°48' E 013°14'0 0.0
2018-Apr-24 00:00N 45°48' E 013°14'0 0.0
2018-Apr-23 23:30N 45°48' E 013°14'0 0.0
2018-Apr-23 22:57N 45°48' E 013°14'  

Dump ship's entire track history